createdAt,value
2023-03-18T00:00:29.187Z,63.20
2023-03-18T00:01:31.200Z,63.30
2023-03-18T00:02:34.038Z,63.40
2023-03-18T00:03:38.146Z,63.40
2023-03-18T00:04:40.871Z,63.50
2023-03-18T00:05:42.700Z,63.40
2023-03-18T00:06:44.661Z,63.50
2023-03-18T00:07:47.640Z,63.50
2023-03-18T00:08:49.808Z,63.40
2023-03-18T00:09:52.952Z,63.50
2023-03-18T00:10:54.784Z,63.30
2023-03-18T00:11:56.970Z,63.40
2023-03-18T00:12:59.791Z,63.20
2023-03-18T00:14:01.602Z,63.50
2023-03-18T00:15:03.501Z,63.20
2023-03-18T00:16:06.847Z,63.40
2023-03-18T00:17:09.623Z,63.60
2023-03-18T00:18:11.458Z,63.50
2023-03-18T00:19:13.357Z,63.20
2023-03-18T00:20:17.135Z,63.10
2023-03-18T00:21:19.536Z,63.50
2023-03-18T00:22:21.846Z,63.50
2023-03-18T00:23:23.785Z,63.50
2023-03-18T00:24:27.940Z,63.40
2023-03-18T00:25:29.724Z,63.50
2023-03-18T00:26:31.953Z,63.70
2023-03-18T00:27:34.879Z,63.60
2023-03-18T00:28:37.543Z,63.60
2023-03-18T00:29:40.170Z,63.50
2023-03-18T00:30:42.731Z,63.40
2023-03-18T00:31:44.951Z,63.30
2023-03-18T00:32:47.547Z,63.40
2023-03-18T00:33:50.477Z,63.40
2023-03-18T00:34:53.268Z,63.40
2023-03-18T00:35:55.179Z,63.40
2023-03-18T00:36:57.278Z,63.50
2023-03-18T00:38:00.530Z,63.60
2023-03-18T00:39:03.730Z,63.60
2023-03-18T00:40:07.913Z,63.70
2023-03-18T00:41:16.041Z,63.90
2023-03-18T00:42:18.399Z,63.70
2023-03-18T00:43:23.004Z,63.50
2023-03-18T00:44:26.320Z,63.60
2023-03-18T00:45:28.545Z,63.50
2023-03-18T00:46:31.899Z,63.50
2023-03-18T00:47:33.940Z,64.40
2023-03-18T00:48:36.557Z,63.60
2023-03-18T00:49:38.497Z,63.60
2023-03-18T00:50:41.650Z,63.60
2023-03-18T00:51:43.964Z,63.60
2023-03-18T00:52:45.844Z,63.70
2023-03-18T00:53:49.910Z,63.60
2023-03-18T00:54:51.722Z,63.80
2023-03-18T00:55:53.953Z,63.60
2023-03-18T00:56:57.825Z,63.70
2023-03-18T00:57:59.744Z,63.70
2023-03-18T00:59:01.597Z,63.60
2023-03-18T01:00:06.733Z,63.40
2023-03-18T01:01:09.029Z,63.50
2023-03-18T01:02:11.023Z,63.50
2023-03-18T01:03:14.229Z,63.50
2023-03-18T01:04:16.647Z,63.60
2023-03-18T01:05:18.836Z,63.50
2023-03-18T01:06:23.042Z,63.80
2023-03-18T01:07:25.339Z,63.80
2023-03-18T01:08:27.339Z,63.80
2023-03-18T01:09:29.694Z,63.60
2023-03-18T01:10:32.046Z,63.70
2023-03-18T01:11:34.075Z,63.90
2023-03-18T01:12:36.112Z,63.70
2023-03-18T01:13:38.863Z,63.70
2023-03-18T01:14:44.499Z,63.80
2023-03-18T01:15:49.049Z,63.50
2023-03-18T01:16:51.197Z,63.80
2023-03-18T01:17:57.010Z,63.70
2023-03-18T01:18:59.962Z,63.70
2023-03-18T01:20:04.112Z,63.60
2023-03-18T01:21:05.990Z,63.70
2023-03-18T01:22:08.212Z,63.60
2023-03-18T01:23:10.756Z,63.70
2023-03-18T01:24:13.462Z,63.70
2023-03-18T01:25:18.109Z,63.60
2023-03-18T01:26:20.128Z,63.80
2023-03-18T01:27:22.012Z,63.90
2023-03-18T01:28:24.313Z,64.00
2023-03-18T01:29:26.153Z,64.10
2023-03-18T01:30:28.686Z,63.90
2023-03-18T01:31:30.687Z,64.10
2023-03-18T01:32:33.159Z,63.90
2023-03-18T01:33:35.849Z,64.10
2023-03-18T01:34:37.745Z,64.10
2023-03-18T01:35:39.726Z,64.00
2023-03-18T01:36:42.182Z,64.00
2023-03-18T01:37:44.484Z,64.20
2023-03-18T01:38:46.665Z,64.20
2023-03-18T01:39:48.748Z,64.20
2023-03-18T01:40:51.124Z,64.30
2023-03-18T01:41:55.834Z,64.40
2023-03-18T01:43:15.183Z,64.30
2023-03-18T01:44:22.983Z,64.60
2023-03-18T01:45:29.982Z,64.70
2023-03-18T01:46:34.627Z,64.80
2023-03-18T01:47:36.625Z,64.90
2023-03-18T01:48:39.987Z,64.90
2023-03-18T01:49:52.629Z,65.00
2023-03-18T01:51:07.523Z,65.20
2023-03-18T01:52:17.385Z,65.20
2023-03-18T01:53:20.421Z,65.80
2023-03-18T01:54:23.273Z,65.30
2023-03-18T01:55:30.780Z,65.50
2023-03-18T01:56:33.801Z,65.50
2023-03-18T01:57:35.871Z,65.60
2023-03-18T01:58:40.509Z,65.60
2023-03-18T01:59:42.622Z,65.80
2023-03-18T02:00:51.755Z,65.80
2023-03-18T02:02:02.233Z,65.80
2023-03-18T02:03:06.353Z,65.80
2023-03-18T02:04:10.644Z,65.90
2023-03-18T02:05:16.491Z,66.00
2023-03-18T02:06:18.871Z,66.00
2023-03-18T02:07:30.461Z,66.00
2023-03-18T02:08:32.495Z,66.20
2023-03-18T02:09:34.754Z,66.70
2023-03-18T02:10:38.340Z,66.00
2023-03-18T02:11:45.672Z,66.20
2023-03-18T02:12:52.217Z,66.80
2023-03-18T02:13:54.942Z,66.20
2023-03-18T02:14:58.746Z,66.10
2023-03-18T02:16:07.560Z,66.10
2023-03-18T02:17:14.807Z,66.20
2023-03-18T02:18:33.836Z,66.40
2023-03-18T02:19:54.524Z,66.40
2023-03-18T02:20:59.876Z,66.40
2023-03-18T02:22:22.796Z,66.30
2023-03-18T02:24:06.736Z,66.50
2023-03-18T02:25:14.278Z,66.70
2023-03-18T02:26:27.627Z,66.70
2023-03-18T02:27:34.863Z,66.70
2023-03-18T02:28:37.675Z,66.60
2023-03-18T02:29:42.412Z,66.20
2023-03-18T02:30:47.763Z,66.50
2023-03-18T02:33:01.073Z,66.90
2023-03-18T02:34:05.653Z,66.70
2023-03-18T02:35:10.649Z,66.90
2023-03-18T02:36:25.278Z,66.80
2023-03-18T02:37:27.391Z,66.80
2023-03-18T02:38:29.454Z,66.50
2023-03-18T02:39:31.812Z,66.50
2023-03-18T02:40:39.069Z,66.50
2023-03-18T02:41:41.340Z,66.80
2023-03-18T02:42:44.641Z,66.70
2023-03-18T02:43:47.932Z,67.10
2023-03-18T02:44:57.188Z,67.10
2023-03-18T02:46:22.301Z,66.90
2023-03-18T02:47:28.432Z,67.10
2023-03-18T02:48:36.669Z,67.00
2023-03-18T02:49:38.818Z,67.10
2023-03-18T02:50:42.396Z,66.80
2023-03-18T02:51:44.808Z,67.10
2023-03-18T02:52:47.478Z,67.00
2023-03-18T02:53:50.798Z,66.90
2023-03-18T02:54:53.515Z,66.90
2023-03-18T02:55:55.444Z,66.90
2023-03-18T02:56:57.826Z,66.80
2023-03-18T02:57:59.812Z,66.80
2023-03-18T02:59:01.843Z,66.70
2023-03-18T03:00:05.881Z,66.80
2023-03-18T03:01:08.677Z,67.50
2023-03-18T03:02:10.836Z,66.90
2023-03-18T03:03:13.170Z,66.80
2023-03-18T03:04:16.284Z,66.90
2023-03-18T03:05:18.318Z,67.20
2023-03-18T03:06:21.099Z,67.00
2023-03-18T03:07:27.895Z,67.20
2023-03-18T03:08:30.578Z,67.30
2023-03-18T03:09:32.506Z,67.30
2023-03-18T03:10:34.543Z,67.20
2023-03-18T03:11:37.653Z,67.20
2023-03-18T03:12:39.842Z,67.30
2023-03-18T03:13:45.362Z,67.20
2023-03-18T03:14:47.273Z,67.40
2023-03-18T03:15:49.805Z,67.30
2023-03-18T03:16:52.165Z,67.40
2023-03-18T03:17:54.919Z,67.40
2023-03-18T03:18:57.242Z,67.50
2023-03-18T03:19:59.809Z,67.50
2023-03-18T03:21:01.916Z,67.60
2023-03-18T03:22:04.192Z,67.40
2023-03-18T03:23:07.709Z,67.60
2023-03-18T03:24:11.221Z,67.60
2023-03-18T03:25:13.476Z,67.70
2023-03-18T03:26:16.920Z,67.50
2023-03-18T03:27:18.893Z,67.60
2023-03-18T03:28:21.820Z,67.40
2023-03-18T03:29:23.819Z,67.40
2023-03-18T03:30:26.371Z,67.40
2023-03-18T03:31:28.447Z,67.50
2023-03-18T03:32:30.459Z,67.60
2023-03-18T03:33:33.358Z,67.50
2023-03-18T03:34:35.238Z,67.70
2023-03-18T03:35:38.898Z,67.50
2023-03-18T03:36:40.894Z,67.50
2023-03-18T03:37:43.934Z,67.40
2023-03-18T03:38:46.466Z,67.60
2023-03-18T03:39:49.103Z,67.50
2023-03-18T03:40:51.520Z,67.70
2023-03-18T03:41:53.519Z,67.60
2023-03-18T03:42:55.841Z,67.60
2023-03-18T03:43:57.920Z,67.60
2023-03-18T03:45:00.162Z,67.50
2023-03-18T03:46:02.239Z,67.60
2023-03-18T03:47:04.278Z,67.50
2023-03-18T03:48:06.803Z,67.30
2023-03-18T03:49:08.821Z,67.30
2023-03-18T03:50:12.062Z,67.20
2023-03-18T03:51:15.375Z,67.40
2023-03-18T03:52:19.931Z,67.20
2023-03-18T03:53:22.521Z,67.10
2023-03-18T03:54:25.826Z,67.00
2023-03-18T03:55:28.355Z,67.10
2023-03-18T03:56:31.625Z,67.10
2023-03-18T03:57:34.032Z,67.10
2023-03-18T03:58:36.334Z,67.20
2023-03-18T03:59:38.534Z,67.00
2023-03-18T04:00:40.574Z,67.00
2023-03-18T04:01:42.491Z,67.00
2023-03-18T04:02:45.546Z,66.80
2023-03-18T04:03:47.487Z,66.80
2023-03-18T04:04:50.602Z,66.60
2023-03-18T04:05:52.783Z,66.70
2023-03-18T04:06:55.233Z,66.60
2023-03-18T04:08:00.113Z,66.60
2023-03-18T04:09:03.640Z,66.60
2023-03-18T04:10:06.705Z,66.50
2023-03-18T04:11:10.246Z,67.20
2023-03-18T04:12:12.784Z,66.40
2023-03-18T04:13:14.744Z,66.30
2023-03-18T04:14:17.601Z,66.00
2023-03-18T04:15:22.063Z,66.10
2023-03-18T04:16:24.106Z,66.10
2023-03-18T04:17:26.098Z,65.90
2023-03-18T04:18:28.124Z,65.80
2023-03-18T04:19:30.550Z,66.30
2023-03-18T04:20:34.712Z,65.70
2023-03-18T04:21:37.039Z,65.70
2023-03-18T04:22:39.186Z,65.80
2023-03-18T04:23:41.709Z,65.70
2023-03-18T04:24:44.895Z,65.60
2023-03-18T04:25:47.414Z,65.70
2023-03-18T04:26:50.223Z,65.60
2023-03-18T04:27:55.549Z,65.60
2023-03-18T04:28:57.867Z,65.50
2023-03-18T04:30:00.853Z,65.40
2023-03-18T04:31:02.867Z,65.30
2023-03-18T04:32:05.138Z,65.30
2023-03-18T04:33:07.050Z,65.50
2023-03-18T04:34:10.015Z,65.50
2023-03-18T04:35:12.480Z,65.40
2023-03-18T04:36:14.507Z,65.50
2023-03-18T04:37:20.049Z,65.50
2023-03-18T04:38:22.004Z,65.50
2023-03-18T04:39:24.214Z,65.30
2023-03-18T04:40:26.506Z,65.00
2023-03-18T04:41:28.566Z,65.00
2023-03-18T04:42:30.553Z,64.90
2023-03-18T04:43:33.052Z,64.80
2023-03-18T04:44:34.976Z,64.80
2023-03-18T04:45:36.953Z,64.70
2023-03-18T04:46:39.151Z,65.10
2023-03-18T04:47:42.636Z,64.30
2023-03-18T04:48:44.992Z,64.30
2023-03-18T04:49:46.869Z,64.20
2023-03-18T04:50:48.873Z,64.10
2023-03-18T04:51:50.859Z,64.00
2023-03-18T04:52:52.756Z,63.90
2023-03-18T04:53:54.724Z,64.00
2023-03-18T04:54:56.730Z,63.90
2023-03-18T04:55:58.837Z,63.70
2023-03-18T04:57:01.089Z,63.30
2023-03-18T04:58:03.405Z,63.40
2023-03-18T04:59:05.912Z,63.40
2023-03-18T05:00:11.712Z,63.60
2023-03-18T05:01:14.263Z,63.70
2023-03-18T05:02:16.222Z,63.50
2023-03-18T05:03:18.478Z,63.40
2023-03-18T05:04:20.648Z,63.40
2023-03-18T05:05:22.767Z,63.10
2023-03-18T05:06:28.019Z,63.10
2023-03-18T05:07:30.152Z,63.10
2023-03-18T05:08:32.319Z,63.10
2023-03-18T05:09:34.448Z,63.20
2023-03-18T05:10:36.933Z,63.00
2023-03-18T05:11:39.028Z,63.00
2023-03-18T05:12:42.222Z,62.80
2023-03-18T05:13:44.342Z,62.90
2023-03-18T05:14:46.290Z,62.90
2023-03-18T05:15:50.804Z,62.60
2023-03-18T05:16:53.771Z,62.60
2023-03-18T05:17:55.783Z,62.80
2023-03-18T05:18:57.981Z,63.00
2023-03-18T05:19:59.926Z,63.70
2023-03-18T05:21:02.737Z,63.00
2023-03-18T05:22:04.758Z,63.10
2023-03-18T05:23:06.757Z,62.80
2023-03-18T05:24:10.081Z,62.70
2023-03-18T05:25:12.757Z,62.90
2023-03-18T05:26:14.991Z,62.80
2023-03-18T05:27:19.392Z,62.80
2023-03-18T05:28:21.933Z,62.90
2023-03-18T05:29:24.139Z,62.60
2023-03-18T05:30:26.114Z,62.70
2023-03-18T05:31:28.074Z,62.60
2023-03-18T05:32:32.270Z,62.70
2023-03-18T05:33:34.379Z,62.80
2023-03-18T05:34:39.058Z,62.70
2023-03-18T05:35:41.529Z,62.90
2023-03-18T05:36:44.173Z,62.80
2023-03-18T05:37:46.942Z,62.70
2023-03-18T05:38:49.106Z,62.70
2023-03-18T05:39:51.401Z,62.60
2023-03-18T05:40:53.472Z,62.40
2023-03-18T05:41:55.396Z,62.40
2023-03-18T05:42:57.476Z,62.50
2023-03-18T05:43:59.528Z,62.60
2023-03-18T05:45:02.269Z,62.50
2023-03-18T05:46:05.725Z,62.60
2023-03-18T05:47:08.562Z,62.70
2023-03-18T05:48:10.844Z,62.50
2023-03-18T05:49:12.949Z,62.10
2023-03-18T05:50:15.091Z,62.00
2023-03-18T05:51:17.133Z,62.10
2023-03-18T05:52:19.555Z,62.20
2023-03-18T05:53:22.207Z,62.10
2023-03-18T05:54:24.275Z,61.90
2023-03-18T05:55:28.424Z,61.80
2023-03-18T05:56:31.297Z,62.00
2023-03-18T05:57:33.580Z,62.10
2023-03-18T05:58:35.648Z,62.20
2023-03-18T05:59:38.304Z,62.10
2023-03-18T06:00:41.594Z,62.00
2023-03-18T06:01:44.732Z,61.90
2023-03-18T06:02:47.816Z,62.00
2023-03-18T06:03:49.758Z,62.00
2023-03-18T06:04:51.687Z,61.80
2023-03-18T06:05:54.001Z,61.90
2023-03-18T06:06:57.108Z,61.70
2023-03-18T06:07:59.534Z,61.80
2023-03-18T06:09:01.492Z,61.70
2023-03-18T06:10:03.685Z,61.40
2023-03-18T06:11:05.680Z,61.30
2023-03-18T06:12:07.861Z,61.10
2023-03-18T06:13:11.841Z,61.00
2023-03-18T06:14:14.479Z,61.00
2023-03-18T06:15:17.426Z,61.00
2023-03-18T06:16:19.525Z,61.00
2023-03-18T06:17:22.299Z,60.80
2023-03-18T06:18:24.662Z,60.70
2023-03-18T06:19:28.556Z,60.60
2023-03-18T06:20:31.017Z,60.80
2023-03-18T06:21:33.244Z,60.90
2023-03-18T06:22:36.200Z,60.80
2023-03-18T06:23:38.754Z,60.90
2023-03-18T06:24:41.069Z,60.80
2023-03-18T06:25:43.352Z,60.60
2023-03-18T06:26:45.269Z,60.70
2023-03-18T06:27:48.071Z,60.70
2023-03-18T06:28:50.119Z,60.60
2023-03-18T06:29:52.198Z,60.60
2023-03-18T06:30:58.149Z,60.40
2023-03-18T06:32:00.103Z,60.40
2023-03-18T06:33:02.587Z,60.00
2023-03-18T06:34:05.111Z,60.00
2023-03-18T06:35:07.903Z,60.10
2023-03-18T06:36:10.843Z,60.40
2023-03-18T06:37:12.796Z,60.10
2023-03-18T06:38:15.777Z,60.20
2023-03-18T06:39:19.056Z,60.20
2023-03-18T06:40:22.550Z,60.00
2023-03-18T06:41:24.546Z,60.00
2023-03-18T06:42:26.695Z,59.80
2023-03-18T06:43:28.776Z,59.60
2023-03-18T06:44:30.895Z,59.60
2023-03-18T06:45:33.369Z,59.60
2023-03-18T06:46:36.069Z,59.50
2023-03-18T06:47:38.654Z,59.50
2023-03-18T06:48:40.888Z,59.60
2023-03-18T06:49:43.108Z,59.50
2023-03-18T06:50:45.901Z,59.30
2023-03-18T06:51:48.786Z,59.00
2023-03-18T06:52:50.773Z,59.10
2023-03-18T06:53:52.957Z,59.00
2023-03-18T06:54:54.960Z,59.10
2023-03-18T06:55:56.888Z,58.90
2023-03-18T06:56:59.126Z,58.90
2023-03-18T06:58:01.228Z,59.00
2023-03-18T06:59:04.025Z,58.90
2023-03-18T07:00:06.818Z,59.00
2023-03-18T07:01:08.825Z,58.60
2023-03-18T07:02:11.144Z,58.50
2023-03-18T07:03:15.804Z,58.60
2023-03-18T07:04:17.910Z,58.60
2023-03-18T07:05:20.883Z,58.40
2023-03-18T07:06:22.854Z,58.50
2023-03-18T07:07:24.816Z,58.40
2023-03-18T07:08:26.856Z,58.30
2023-03-18T07:09:30.125Z,58.20
2023-03-18T07:10:32.176Z,58.20
2023-03-18T07:11:34.141Z,58.10
2023-03-18T07:12:36.125Z,57.90
2023-03-18T07:13:38.041Z,57.90
2023-03-18T07:14:41.060Z,57.70
2023-03-18T07:15:43.888Z,57.70
2023-03-18T07:16:46.458Z,57.70
2023-03-18T07:17:50.158Z,57.80
2023-03-18T07:18:52.663Z,57.70
2023-03-18T07:19:54.741Z,57.60
2023-03-18T07:20:56.731Z,57.60
2023-03-18T07:21:59.225Z,57.60
2023-03-18T07:23:01.511Z,57.50
2023-03-18T07:24:04.114Z,57.50
2023-03-18T07:25:06.530Z,57.30
2023-03-18T07:26:09.171Z,57.00
2023-03-18T07:27:13.441Z,57.00
2023-03-18T07:28:15.731Z,57.00
2023-03-18T07:29:18.654Z,56.90
2023-03-18T07:30:21.368Z,56.90
2023-03-18T07:31:23.779Z,56.90
2023-03-18T07:32:25.725Z,57.10
2023-03-18T07:33:27.679Z,56.70
2023-03-18T07:34:29.657Z,56.60
2023-03-18T07:35:31.948Z,56.60
2023-03-18T07:36:34.061Z,56.60
2023-03-18T07:37:36.076Z,56.50
2023-03-18T07:38:38.057Z,56.60
2023-03-18T07:39:40.595Z,56.40
2023-03-18T07:41:07.187Z,56.20
2023-03-18T07:42:10.846Z,56.30
2023-03-18T07:43:12.721Z,56.70
2023-03-18T07:44:14.886Z,56.00
2023-03-18T07:45:16.894Z,56.00
2023-03-18T07:46:18.964Z,55.90
2023-03-18T07:47:21.055Z,56.00
2023-03-18T07:48:23.047Z,55.70
2023-03-18T07:49:25.063Z,55.60
2023-03-18T07:50:28.014Z,55.60
2023-03-18T07:51:30.509Z,55.50
2023-03-18T07:52:32.497Z,55.50
2023-03-18T07:53:35.854Z,55.30
2023-03-18T07:54:37.934Z,55.30
2023-03-18T07:55:40.887Z,55.30
2023-03-18T07:56:42.882Z,55.20
2023-03-18T07:57:45.023Z,54.80
2023-03-18T07:58:48.028Z,54.90
2023-03-18T07:59:50.103Z,54.80
2023-03-18T08:00:54.116Z,54.80
2023-03-18T08:01:56.742Z,54.80
2023-03-18T08:02:58.861Z,54.70
2023-03-18T08:04:00.922Z,54.80
2023-03-18T08:05:04.503Z,54.80
2023-03-18T08:06:06.758Z,54.80
2023-03-18T08:07:09.106Z,54.80
2023-03-18T08:08:11.644Z,54.80
2023-03-18T08:09:14.375Z,54.80
2023-03-18T08:10:17.450Z,55.00
2023-03-18T08:11:19.553Z,54.80
2023-03-18T08:12:21.942Z,54.50
2023-03-18T08:13:24.302Z,54.10
2023-03-18T08:14:39.978Z,54.20
2023-03-18T08:15:41.994Z,54.00
2023-03-18T08:16:44.016Z,53.90
2023-03-18T08:17:46.238Z,54.00
2023-03-18T08:18:48.254Z,54.00
2023-03-18T08:19:50.174Z,54.30
2023-03-18T08:20:53.149Z,54.20
2023-03-18T08:21:55.982Z,54.30
2023-03-18T08:22:58.020Z,54.20
2023-03-18T08:23:59.941Z,53.90
2023-03-18T08:25:01.932Z,53.90
2023-03-18T08:26:04.937Z,53.90
2023-03-18T08:27:07.056Z,54.10
2023-03-18T08:28:09.127Z,54.50
2023-03-18T08:29:11.218Z,54.40
2023-03-18T08:30:13.893Z,53.80
2023-03-18T08:31:16.106Z,53.90
2023-03-18T08:32:18.925Z,53.80
2023-03-18T08:33:20.895Z,53.70
2023-03-18T08:34:23.530Z,53.80
2023-03-18T08:35:25.922Z,53.90
2023-03-18T08:36:28.789Z,54.00
2023-03-18T08:37:31.341Z,54.10
2023-03-18T08:38:53.651Z,54.20
2023-03-18T08:39:55.805Z,53.90
2023-03-18T08:40:58.018Z,54.00
2023-03-18T08:42:00.000Z,54.30
2023-03-18T08:43:01.976Z,54.00
2023-03-18T08:44:06.614Z,54.20
2023-03-18T08:45:09.644Z,54.30
2023-03-18T08:46:11.890Z,54.10
2023-03-18T08:47:13.929Z,54.10
2023-03-18T08:48:16.359Z,54.20
2023-03-18T08:49:18.755Z,54.00
2023-03-18T08:50:21.036Z,53.90
2023-03-18T08:51:25.698Z,53.90
2023-03-18T08:52:27.818Z,54.00
2023-03-18T08:53:30.077Z,53.80
2023-03-18T08:54:31.980Z,53.60
2023-03-18T08:55:37.245Z,53.90
2023-03-18T08:56:39.436Z,53.80
2023-03-18T08:57:42.831Z,53.80
2023-03-18T08:58:46.199Z,53.90
2023-03-18T08:59:48.237Z,53.70
2023-03-18T09:00:52.533Z,53.70
2023-03-18T09:01:54.752Z,53.70
2023-03-18T09:02:56.814Z,53.50
2023-03-18T09:03:59.748Z,53.50
2023-03-18T09:05:01.806Z,53.70
2023-03-18T09:06:04.806Z,53.70
2023-03-18T09:07:06.785Z,53.70
2023-03-18T09:08:09.291Z,53.40
2023-03-18T09:09:12.194Z,53.50
2023-03-18T09:10:14.902Z,53.30
2023-03-18T09:11:18.158Z,53.50
2023-03-18T09:12:20.089Z,53.30
2023-03-18T09:13:23.178Z,53.00
2023-03-18T09:14:26.050Z,53.00
2023-03-18T09:15:28.072Z,52.90
2023-03-18T09:16:30.045Z,52.90
2023-03-18T09:17:48.858Z,52.80
2023-03-18T09:18:54.341Z,52.80
2023-03-18T09:19:56.711Z,52.60
2023-03-18T09:20:58.759Z,52.60
2023-03-18T09:22:01.098Z,52.40
2023-03-18T09:23:04.091Z,52.60
2023-03-18T09:24:07.506Z,52.60
2023-03-18T09:25:10.788Z,52.50
2023-03-18T09:26:12.894Z,52.70
2023-03-18T09:27:15.039Z,52.80
2023-03-18T09:28:17.078Z,52.50
2023-03-18T09:29:19.105Z,52.30
2023-03-18T09:30:21.893Z,52.20
2023-03-18T09:31:24.796Z,52.20
2023-03-18T09:32:26.930Z,52.00
2023-03-18T09:33:28.905Z,51.90
2023-03-18T09:34:31.279Z,52.00
2023-03-18T09:35:34.142Z,51.80
2023-03-18T09:36:36.567Z,51.70
2023-03-18T09:37:38.796Z,51.80
2023-03-18T09:38:42.623Z,52.00
2023-03-18T09:39:44.988Z,51.70
2023-03-18T09:41:10.257Z,51.40
2023-03-18T09:42:51.197Z,51.40
2023-03-18T09:44:11.305Z,51.10
2023-03-18T09:45:47.116Z,50.60
2023-03-18T09:47:05.938Z,50.90
2023-03-18T09:48:37.557Z,51.00
2023-03-18T09:50:06.941Z,50.90
2023-03-18T09:51:11.776Z,51.10
2023-03-18T09:52:28.837Z,50.80
2023-03-18T09:53:56.149Z,50.80
2023-03-18T09:55:13.010Z,50.60
2023-03-18T09:56:20.736Z,50.30
2023-03-18T09:57:43.642Z,49.90
2023-03-18T09:58:52.439Z,49.60
2023-03-18T10:00:05.446Z,49.50
2023-03-18T10:01:10.584Z,50.10
2023-03-18T10:02:35.097Z,50.30
2023-03-18T10:04:01.039Z,49.60
2023-03-18T10:05:31.429Z,49.00
2023-03-18T10:06:37.159Z,49.40
2023-03-18T10:07:42.976Z,49.80
2023-03-18T10:09:10.164Z,49.40
2023-03-18T10:10:24.102Z,49.20
2023-03-18T10:11:32.164Z,48.90
2023-03-18T10:12:42.299Z,48.40
2023-03-18T10:14:29.345Z,48.90
2023-03-18T10:15:38.490Z,48.80
2023-03-18T10:16:58.622Z,48.70
2023-03-18T10:18:10.495Z,48.80
2023-03-18T10:19:12.455Z,49.20
2023-03-18T10:20:29.195Z,49.00
2023-03-18T10:22:07.645Z,49.20
2023-03-18T10:23:41.914Z,48.40
2023-03-18T10:25:21.179Z,48.60
2023-03-18T10:26:32.327Z,48.40
2023-03-18T10:27:58.212Z,48.90
2023-03-18T10:29:37.918Z,48.70
2023-03-18T10:31:16.581Z,48.20
2023-03-18T10:32:49.427Z,47.80
2023-03-18T10:34:11.947Z,48.20
2023-03-18T10:35:22.770Z,48.70
2023-03-18T10:36:35.754Z,48.40
2023-03-18T10:38:03.632Z,48.60
2023-03-18T10:39:13.690Z,48.40
2023-03-18T10:40:18.274Z,48.80
2023-03-18T10:41:31.378Z,49.00
2023-03-18T10:42:36.059Z,48.90
2023-03-18T10:43:38.186Z,48.80
2023-03-18T10:44:42.153Z,48.50
2023-03-18T10:45:46.951Z,48.70
2023-03-18T10:46:57.916Z,48.50
2023-03-18T10:48:10.797Z,47.80
2023-03-18T10:49:17.617Z,48.00
2023-03-18T10:50:23.769Z,48.00
2023-03-18T10:51:40.316Z,47.70
2023-03-18T10:53:23.947Z,46.80
2023-03-18T10:54:44.197Z,47.10
2023-03-18T10:55:57.415Z,46.80
2023-03-18T10:56:59.755Z,46.80
2023-03-18T10:58:14.838Z,46.80
2023-03-18T10:59:18.779Z,47.30
2023-03-18T11:00:36.449Z,47.40
2023-03-18T11:01:39.695Z,47.40
2023-03-18T11:02:41.929Z,47.40
2023-03-18T11:04:03.989Z,47.30
2023-03-18T11:05:22.836Z,47.70
2023-03-18T11:06:45.904Z,46.70
2023-03-18T11:08:01.544Z,46.00
2023-03-18T11:09:10.681Z,45.60
2023-03-18T11:10:23.895Z,44.80
2023-03-18T11:11:34.775Z,43.80
2023-03-18T11:12:37.024Z,43.60
2023-03-18T11:13:39.059Z,42.40
2023-03-18T11:14:42.326Z,42.40
2023-03-18T11:15:50.325Z,42.20
2023-03-18T11:16:57.961Z,42.40
2023-03-18T11:18:04.875Z,42.20
2023-03-18T11:19:32.512Z,42.10
2023-03-18T11:20:47.609Z,41.50
2023-03-18T11:21:59.345Z,41.50
2023-03-18T11:23:13.757Z,42.00
2023-03-18T11:24:39.767Z,42.90
2023-03-18T11:25:46.874Z,43.60
2023-03-18T11:26:57.168Z,44.40
2023-03-18T11:28:04.487Z,44.80
2023-03-18T11:29:13.755Z,44.90
2023-03-18T11:30:41.132Z,44.60
2023-03-18T11:32:00.369Z,44.50
2023-03-18T11:33:08.203Z,43.70
2023-03-18T11:34:10.430Z,43.20
2023-03-18T11:35:20.748Z,42.90
2023-03-18T11:36:24.573Z,42.70
2023-03-18T11:37:41.976Z,42.40
2023-03-18T11:38:44.758Z,42.10
2023-03-18T11:39:49.386Z,41.90
2023-03-18T11:40:53.798Z,41.90
2023-03-18T11:41:55.837Z,41.70
2023-03-18T11:43:03.099Z,41.50
2023-03-18T11:44:19.119Z,41.00
2023-03-18T11:45:23.688Z,41.20
2023-03-18T11:46:29.035Z,40.90
2023-03-18T11:47:35.242Z,41.20
2023-03-18T11:48:39.881Z,40.60
2023-03-18T11:49:44.177Z,40.50
2023-03-18T11:51:24.607Z,40.20
2023-03-18T11:52:36.304Z,40.20
2023-03-18T11:53:47.442Z,40.50
2023-03-18T11:55:01.841Z,40.50
2023-03-18T11:56:12.896Z,39.90
2023-03-18T11:57:32.353Z,39.80
2023-03-18T11:59:06.068Z,39.40
2023-03-18T12:00:45.804Z,39.50
2023-03-18T12:02:04.933Z,39.20
2023-03-18T12:03:25.519Z,39.80
2023-03-18T12:04:42.757Z,39.80
2023-03-18T12:05:59.389Z,39.80
2023-03-18T12:07:13.777Z,39.60
2023-03-18T12:08:23.517Z,39.40
2023-03-18T12:09:49.996Z,39.50
2023-03-18T12:11:07.530Z,39.70
2023-03-18T12:12:21.787Z,39.60
2023-03-18T12:13:23.630Z,39.80
2023-03-18T12:14:38.979Z,39.50
2023-03-18T12:16:02.473Z,38.90
2023-03-18T12:17:34.781Z,38.70
2023-03-18T12:19:05.141Z,38.90
2023-03-18T12:20:24.725Z,38.60
2023-03-18T12:21:49.303Z,38.20
2023-03-18T12:23:03.415Z,38.60
2023-03-18T12:24:30.428Z,38.80
2023-03-18T12:25:54.846Z,38.70
2023-03-18T12:26:59.932Z,38.90
2023-03-18T12:28:20.740Z,39.00
2023-03-18T12:29:41.246Z,38.60
2023-03-18T12:31:06.772Z,39.10
2023-03-18T12:32:26.488Z,38.70
2023-03-18T12:33:34.462Z,39.20
2023-03-18T12:35:16.079Z,39.20
2023-03-18T12:36:24.100Z,39.30
2023-03-18T12:38:08.647Z,40.50
2023-03-18T12:39:26.548Z,40.40
2023-03-18T12:40:45.213Z,40.60
2023-03-18T12:42:08.220Z,40.80
2023-03-18T12:43:39.725Z,41.40
2023-03-18T12:44:44.450Z,41.40
2023-03-18T12:45:51.041Z,41.70
2023-03-18T12:47:09.455Z,41.80
2023-03-18T12:48:16.713Z,42.00
2023-03-18T12:49:19.876Z,41.90
2023-03-18T12:50:38.356Z,41.90
2023-03-18T12:52:04.450Z,41.90
2023-03-18T12:53:17.270Z,42.10
2023-03-18T12:54:26.674Z,42.20
2023-03-18T12:55:32.668Z,42.10
2023-03-18T12:56:41.114Z,42.20
2023-03-18T12:57:48.765Z,42.20
2023-03-18T12:59:22.278Z,42.40
2023-03-18T13:00:35.591Z,42.40
2023-03-18T13:01:49.443Z,42.80
2023-03-18T13:03:28.395Z,43.20
2023-03-18T13:04:33.383Z,43.50
2023-03-18T13:05:53.446Z,43.60
2023-03-18T13:07:16.570Z,43.60
2023-03-18T13:08:46.316Z,43.60
2023-03-18T13:09:59.108Z,43.40
2023-03-18T13:11:30.107Z,43.70
2023-03-18T13:12:39.679Z,43.70
2023-03-18T13:13:48.682Z,43.40
2023-03-18T13:15:08.501Z,43.10
2023-03-18T13:16:14.005Z,43.20
2023-03-18T13:17:23.596Z,42.80
2023-03-18T13:18:48.728Z,42.60
2023-03-18T13:19:50.894Z,42.40
2023-03-18T13:20:56.819Z,41.40
2023-03-18T13:22:18.985Z,40.80
2023-03-18T13:23:42.180Z,40.70
2023-03-18T13:25:02.508Z,41.00
2023-03-18T13:26:24.814Z,41.70
2023-03-18T13:27:44.780Z,42.20
2023-03-18T13:29:07.658Z,43.00
2023-03-18T13:30:17.439Z,43.60
2023-03-18T13:31:25.046Z,43.90
2023-03-18T13:32:39.252Z,44.20
2023-03-18T13:34:00.206Z,44.30
2023-03-18T13:35:13.152Z,44.80
2023-03-18T13:36:42.379Z,45.10
2023-03-18T13:38:06.185Z,45.00
2023-03-18T13:39:17.638Z,45.10
2023-03-18T13:40:22.568Z,45.20
2023-03-18T13:41:36.340Z,45.30
2023-03-18T13:42:40.692Z,45.20
2023-03-18T13:43:49.333Z,45.40
2023-03-18T13:45:34.225Z,45.20
2023-03-18T13:46:36.537Z,45.40
2023-03-18T13:47:40.593Z,45.30
2023-03-18T13:48:42.690Z,45.30
2023-03-18T13:49:45.657Z,45.30
2023-03-18T13:50:50.668Z,45.30
2023-03-18T13:51:59.750Z,45.60
2023-03-18T13:53:04.299Z,45.50
2023-03-18T13:54:14.711Z,45.40
2023-03-18T13:55:31.948Z,45.40
2023-03-18T13:56:43.292Z,45.50
2023-03-18T13:58:05.137Z,45.30
2023-03-18T13:59:28.624Z,45.20
2023-03-18T14:00:36.048Z,45.30
2023-03-18T14:01:50.941Z,45.40
2023-03-18T14:03:20.265Z,45.20
2023-03-18T14:04:45.980Z,45.30
2023-03-18T14:05:50.366Z,45.50
2023-03-18T14:06:57.051Z,45.60
2023-03-18T14:07:59.396Z,45.80
2023-03-18T14:09:32.428Z,45.80
2023-03-18T14:10:34.413Z,45.90
2023-03-18T14:11:47.353Z,45.90
2023-03-18T14:12:49.792Z,45.90
2023-03-18T14:14:02.103Z,45.80
2023-03-18T14:15:37.244Z,45.80
2023-03-18T14:16:42.344Z,45.90
2023-03-18T14:17:55.612Z,45.90
2023-03-18T14:19:28.786Z,46.00
2023-03-18T14:20:43.117Z,45.90
2023-03-18T14:22:08.353Z,45.90
2023-03-18T14:23:38.711Z,46.10